Time;durP1;ratioP1;P1;durP2;ratioP2;P2;SDS_P1;SDS_P2;PMS_P1;PMS_P2;Temp;Humidity;BMP_temperature;BMP_pressure;BME280_temperature;BME280_humidity;BME280_pressure;Samples;Min_cycle;Max_cycle;Signal;HPM_P1;HPM_P2
2023/04/11 08:08:19;;;;;;;7.07;6.38;;;22.10;68.60;;;22.17;36.02;100089.94;5071476;27;20611;-39
2023/04/11 08:20:27;;;;;;;5.95;5.35;;;;;;;25.77;31.48;100088.91;5061411;28;20579;-59
2023/04/11 08:23:24;;;;;;;5.57;5.07;;;;;;;28.06;25.56;100077.09;5038647;27;20948;-61
2023/04/11 08:25:52;;;;;;;6.30;5.70;;;;;;;29.27;24.36;100067.50;5038378;28;20598;-60
2023/04/11 08:28:20;;;;;;;6.53;4.45;;;;;;;29.95;22.74;100077.31;5044427;28;20233;-60
2023/04/11 08:30:51;;;;;;;5.65;4.55;;;;;;;30.14;22.08;100071.13;5039267;28;20206;-60
2023/04/11 08:33:20;;;;;;;4.70;4.25;;;;;;;30.71;22.09;100069.28;5037196;28;20653;-61
2023/04/11 08:35:48;;;;;;;4.45;3.95;;;;;;;31.21;20.24;100061.75;5039513;28;20209;-59
2023/04/11 08:38:16;;;;;;;5.13;4.00;;;;;;;31.92;20.30;100047.63;5035857;28;20372;-60
2023/04/11 08:40:45;;;;;;;5.82;4.00;;;;;;;32.60;19.55;100038.91;5042250;28;20656;-58
2023/04/11 08:43:13;;;;;;;4.10;3.80;;;;;;;33.52;18.54;100036.34;5052908;28;20292;-57
2023/04/11 08:45:41;;;;;;;4.00;3.00;;;;;;;33.11;17.17;100031.75;5046435;28;20271;-63
2023/04/11 08:48:11;;;;;;;5.68;3.42;;;;;;;30.14;19.95;100036.56;5045181;28;20198;-60
2023/04/11 08:50:39;;;;;;;3.78;3.47;;;;;;;27.07;24.02;100041.91;5044160;28;20205;-61
2023/04/11 08:53:08;;;;;;;3.40;3.08;;;;;;;28.13;24.45;100033.19;5046197;28;20297;-61
2023/04/11 08:55:46;;;;;;;3.47;3.17;;;;;;;29.40;21.72;100023.91;5042740;28;20202;-61
2023/04/11 08:58:15;;;;;;;3.35;3.05;;;;;;;28.70;21.88;100020.41;5038012;28;20206;-64
2023/04/11 09:00:43;;;;;;;4.53;3.10;;;;;;;28.79;21.69;100014.25;5038070;28;20691;-66
2023/04/11 09:03:12;;;;;;;3.25;2.95;;;;;;;29.45;21.63;100016.34;5044051;28;20299;-62
2023/04/11 09:05:43;;;;;;;3.10;2.83;;;;;;;29.85;20.29;100011.72;5041162;28;20268;-63
2023/04/11 09:08:12;;;;;;;3.20;2.88;;;;;;;30.78;19.31;100015.41;5044308;28;20692;-63
2023/04/11 09:10:43;;;;;;;3.25;2.97;;;;;;;31.39;18.84;100005.06;5043807;28;20212;-60
2023/04/11 09:13:19;;;;;;;5.30;2.90;;;;;;;32.15;18.29;100005.31;5039336;28;20207;-61
2023/04/11 09:15:47;;;;;;;2.70;2.50;;;;;;;33.58;17.39;99993.78;5037994;28;20197;-61
2023/04/11 09:18:34;;;;;;;2.90;2.70;;;;;;;34.61;14.87;99998.38;5039683;28;20213;-62
2023/04/11 09:21:05;;;;;;;4.00;2.10;;;;;;;34.25;15.51;99977.47;5038693;28;20226;-62
2023/04/11 09:23:33;;;;;;;2.40;2.20;;;;;;;34.56;15.83;99979.34;5040852;28;20218;-62
2023/04/11 09:26:01;;;;;;;5.55;2.60;;;;;;;34.72;14.92;99984.59;5042789;28;20261;-61
2023/04/11 09:28:39;;;;;;;2.22;2.03;;;;;;;32.83;15.62;99956.41;5040054;28;20209;-62
2023/04/11 09:31:08;;;;;;;2.30;2.13;;;;;;;31.27;17.17;99964.47;5042927;28;20657;-60
2023/04/11 09:33:36;;;;;;;3.92;2.05;;;;;;;29.63;18.67;99955.44;5036762;28;20290;-61
2023/04/11 09:36:19;;;;;;;2.97;1.90;;;;;;;28.31;20.47;99951.28;5030908;28;20206;-62
2023/04/11 09:38:47;;;;;;;1.92;1.80;;;;;;;28.59;20.09;99933.84;5025949;28;20211;-62
2023/04/11 09:41:15;;;;;;;1.67;1.55;;;;;;;28.68;20.11;99926.88;5026754;28;20202;-66
2023/04/11 09:43:52;;;;;;;1.95;1.85;;;;;;;28.39;19.97;99928.50;5026264;28;20320;-62
2023/04/11 09:46:20;;;;;;;2.55;2.00;;;;;;;27.35;21.11;99926.75;5023689;28;20202;-62
2023/04/11 09:48:49;;;;;;;2.50;2.30;;;;;;;27.16;21.62;99932.75;5027450;28;20206;-62
2023/04/11 09:51:18;;;;;;;2.85;2.35;;;;;;;25.74;23.50;99922.88;5024433;28;20199;-62
2023/04/11 09:53:49;;;;;;;3.58;2.20;;;;;;;23.83;26.29;99919.97;5028759;28;20198;-62
2023/04/11 09:56:17;;;;;;;4.30;2.25;;;;;;;23.26;26.85;99916.81;5023989;28;20249;-62
2023/04/11 09:58:47;;;;;;;2.20;2.00;;;;;;;23.14;26.97;99923.72;5021172;28;20210;-63
2023/04/11 10:01:18;;;;;;;2.28;1.48;;;;;;;23.67;26.39;99914.06;5021265;28;20206;-61
2023/04/11 10:03:49;;;;;;;1.80;1.70;;;;;;;23.87;25.37;99907.44;5030915;28;20279;-66
2023/04/11 10:06:30;;;;;;;2.50;2.28;;;;;;;23.96;25.93;99905.97;5028288;28;20202;-62
2023/04/11 10:09:06;;;;;;;3.42;2.45;;;;;;;24.00;26.43;99897.72;5023408;28;20256;-62
2023/04/11 10:11:35;;;;;;;2.50;2.30;;;;;;;24.42;26.94;99911.50;5030270;28;20578;-63
2023/04/11 10:14:03;;;;;;;2.88;2.67;;;;;;;24.95;26.18;99898.84;5026276;28;20240;-62
2023/04/11 10:16:33;;;;;;;3.65;3.00;;;;;;;25.12;25.04;99888.91;5038740;28;20206;-65
2023/04/11 10:19:26;;;;;;;3.47;3.15;;;;;;;24.96;25.54;99886.50;5030531;28;20595;-61
2023/04/11 10:21:54;;;;;;;3.40;3.10;;;;;;;24.39;25.83;99893.28;5017548;28;20239;-63
2023/04/11 10:24:22;;;;;;;3.90;3.42;;;;;;;23.88;27.10;99889.88;5023014;28;20632;-61
2023/04/11 10:26:52;;;;;;;4.32;3.92;;;;;;;24.07;27.50;99891.09;5034074;28;20202;-61
2023/04/11 10:29:51;;;;;;;4.40;3.50;;;;;;;24.08;27.61;99895.44;5028728;28;20211;-63
2023/04/11 10:32:25;;;;;;;4.25;3.70;;;;;;;24.50;26.96;99881.97;5027045;28;20237;-62
2023/04/11 10:35:22;;;;;;;5.40;3.40;;;;;;;24.79;26.04;99879.88;5029615;28;20234;-63
2023/04/11 10:37:50;;;;;;;3.90;3.42;;;;;;;23.95;26.60;99870.91;5022450;28;20573;-63
2023/04/11 10:40:19;;;;;;;4.10;3.70;;;;;;;23.05;28.14;99877.88;5030648;28;20657;-63
2023/04/11 10:42:48;;;;;;;4.70;4.30;;;;;;;22.09;29.65;99878.72;5025796;28;20222;-61
2023/04/11 10:45:25;;;;;;;5.00;3.95;;;;;;;21.65;30.54;99879.63;5026550;28;20203;-62
2023/04/11 10:48:12;;;;;;;4.05;3.75;;;;;;;21.02;31.56;99866.72;5018321;28;20294;-61
2023/04/11 10:50:44;;;;;;;4.97;3.45;;;;;;;20.51;32.65;99864.38;5022260;28;20886;-62
2023/04/11 10:53:37;;;;;;;4.10;3.78;;;;;;;19.98;33.20;99870.69;5024029;28;20561;-61
2023/04/11 10:56:05;;;;;;;4.40;4.00;;;;;;;19.75;33.97;99866.69;5030090;28;20225;-62
2023/04/11 10:58:36;;;;;;;5.40;3.90;;;;;;;19.71;34.07;99868.63;5022981;28;20203;-63
2023/04/11 11:01:19;;;;;;;5.25;3.53;;;;;;;20.00;33.75;99866.25;5017233;28;20622;-61
2023/04/11 11:04:05;;;;;;;3.60;3.30;;;;;;;20.47;32.21;99862.81;5024593;28;20814;-61
2023/04/11 11:06:34;;;;;;;3.80;3.47;;;;;;;20.85;31.73;99858.09;5022259;28;20612;-63
2023/04/11 11:09:22;;;;;;;3.63;3.33;;;;;;;20.98;30.58;99858.22;5023273;28;20634;-62
2023/04/11 11:12:05;;;;;;;4.20;3.13;;;;;;;20.82;30.29;99857.41;5024045;28;20241;-62
2023/04/11 11:14:33;;;;;;;3.15;2.83;;;;;;;20.81;30.13;99856.56;5028076;28;20211;-62
2023/04/11 11:17:02;;;;;;;3.40;3.10;;;;;;;20.54;29.44;99845.03;5031505;28;20206;-62
2023/04/11 11:19:32;;;;;;;3.97;2.97;;;;;;;20.42;28.87;99857.00;5028789;28;20547;-63
2023/04/11 11:22:02;;;;;;;3.67;3.03;;;;;;;20.39;28.52;99846.69;5020198;28;20286;-63
2023/04/11 11:24:31;;;;;;;2.90;2.70;;;;;;;20.42;28.47;99841.28;5031373;28;20211;-62
2023/04/11 11:26:59;;;;;;;4.38;2.80;;;;;;;20.45;28.85;99835.88;5022222;28;20744;-62
2023/04/11 11:29:31;;;;;;;3.03;2.70;;;;;;;20.44;28.57;99834.22;5026576;28;20203;-62
2023/04/11 11:32:01;;;;;;;3.80;3.40;;;;;;;20.16;28.31;99830.47;5024766;28;20230;-62
2023/04/11 11:34:33;;;;;;;7.53;3.53;;;;;;;19.98;28.44;99828.84;5022354;28;20689;-61
2023/04/11 11:37:03;;;;;;;3.78;3.28;;;;;;;19.78;29.06;99820.31;5021626;28;20566;-64
2023/04/11 11:39:32;;;;;;;6.90;3.33;;;;;;;19.70;29.14;99830.34;5022135;28;20260;-63
2023/04/11 11:42:01;;;;;;;4.18;3.78;;;;;;;19.50;29.98;99823.50;5021143;28;20203;-65
2023/04/11 11:44:31;;;;;;;5.80;3.72;;;;;;;19.29;30.42;99820.25;5025728;28;20368;-64
2023/04/11 11:47:03;;;;;;;4.93;3.22;;;;;;;19.14;30.63;99818.38;5028875;28;20646;-63
2023/04/11 11:49:46;;;;;;;5.45;3.45;;;;;;;19.07;30.99;99822.22;5027400;28;20571;-63
2023/04/11 11:52:32;;;;;;;4.32;3.92;;;;;;;19.11;31.74;99817.69;5023367;28;20298;-63
2023/04/11 11:55:01;;;;;;;3.83;3.50;;;;;;;18.97;30.71;99813.19;5029994;28;20677;-62
2023/04/11 11:57:28;;;;;;;3.58;3.28;;;;;;;18.71;31.46;99812.69;5027257;28;20246;-61
2023/04/11 11:59:57;;;;;;;5.95;4.18;;;;;;;18.44;32.89;99821.81;5028313;28;20202;-62
2023/04/11 12:02:26;;;;;;;4.47;4.07;;;;;;;18.16;33.89;99820.50;5026439;28;20203;-61
2023/04/11 12:04:58;;;;;;;5.97;4.15;;;;;;;17.86;35.02;99821.00;5018528;28;20334;-61
2023/04/11 12:07:31;;;;;;;4.65;4.25;;;;;;;17.78;35.44;99823.06;5027619;28;20217;-62
2023/04/11 12:10:00;;;;;;;4.38;3.97;;;;;;;17.93;34.94;99815.50;5028737;28;20246;-64
2023/04/11 12:12:35;;;;;;;4.53;4.13;;;;;;;17.93;34.86;99812.88;5020790;28;20268;-63
2023/04/11 12:15:09;;;;;;;4.40;4.00;;;;;;;17.79;35.11;99811.75;5021513;28;20660;-64
2023/04/11 12:17:38;;;;;;;4.70;4.10;;;;;;;17.76;35.46;99819.72;5025052;28;20654;-62
2023/04/11 12:20:09;;;;;;;6.30;4.60;;;;;;;17.76;35.00;99814.50;5027626;28;20245;-63
2023/04/11 12:22:38;;;;;;;4.85;4.40;;;;;;;17.72;35.49;99812.06;5019654;28;20230;-63
2023/04/11 12:25:07;;;;;;;4.80;4.32;;;;;;;17.72;35.40;99799.03;5026508;28;20260;-65
2023/04/11 12:27:36;;;;;;;5.30;4.20;;;;;;;17.67;35.40;99799.22;5025179;28;20213;-64
2023/04/11 12:30:05;;;;;;;4.90;4.25;;;;;;;17.65;35.03;99793.25;5024746;28;20646;-65
2023/04/11 12:32:33;;;;;;;5.32;4.10;;;;;;;17.60;35.38;99790.03;5027616;28;20214;-66
2023/04/11 12:35:02;;;;;;;4.50;4.13;;;;;;;17.79;35.33;99792.69;5027900;28;20230;-64
2023/04/11 12:37:32;;;;;;;5.68;4.57;;;;;;;17.94;34.92;99775.50;5021079;28;20198;-66
2023/04/11 12:40:05;;;;;;;4.50;4.10;;;;;;;17.98;34.64;99782.25;5022792;28;20238;-66
2023/04/11 12:42:33;;;;;;;4.55;4.15;;;;;;;17.78;34.98;99780.53;5022841;28;20547;-63
2023/04/11 12:45:21;;;;;;;4.60;4.20;;;;;;;17.52;35.42;99776.47;5024141;28;20230;-65
2023/04/11 12:47:49;;;;;;;5.10;4.60;;;;;;;17.48;35.75;99772.31;5027621;28;20276;-66
2023/04/11 12:50:18;;;;;;;5.57;5.00;;;;;;;17.55;35.76;99778.94;5026991;28;20297;-63
2023/04/11 12:52:48;;;;;;;5.82;4.80;;;;;;;17.59;35.67;99776.13;5024673;28;20207;-63
2023/04/11 12:55:16;;;;;;;7.80;4.72;;;;;;;17.63;35.42;99774.22;5025143;28;20203;-64
2023/04/11 12:57:44;;;;;;;5.53;5.03;;;;;;;17.61;35.99;99763.03;5026581;28;20203;-59
2023/04/11 13:00:13;;;;;;;4.78;4.38;;;;;;;17.48;35.60;99756.69;5025133;28;20207;-63
2023/04/11 13:02:42;;;;;;;4.85;4.45;;;;;;;17.30;35.98;99764.38;5021709;28;20624;-62
2023/04/11 13:05:12;;;;;;;4.47;4.07;;;;;;;17.12;36.17;99754.78;5025469;28;20215;-64
2023/04/11 13:07:41;;;;;;;6.03;4.85;;;;;;;16.98;36.36;99752.78;5027125;28;20233;-61
2023/04/11 13:10:12;;;;;;;4.82;4.32;;;;;;;16.89;37.37;99753.16;5026589;28;21400;-63
2023/04/11 13:12:43;;;;;;;5.15;4.65;;;;;;;16.89;37.81;99753.16;5030659;28;20206;-62
2023/04/11 13:15:12;;;;;;;5.25;4.75;;;;;;;16.82;37.18;99749.94;5032367;28;20341;-63
2023/04/11 13:17:40;;;;;;;5.70;5.07;;;;;;;16.83;37.60;99748.22;5031244;28;20290;-61
2023/04/11 13:20:09;;;;;;;5.10;4.70;;;;;;;16.90;37.94;99734.03;5029707;28;20206;-61
2023/04/11 13:22:38;;;;;;;5.20;4.70;;;;;;;16.96;37.75;99730.31;5026767;28;20766;-62
2023/04/11 13:25:07;;;;;;;5.35;4.82;;;;;;;17.01;37.47;99725.75;5022472;28;20210;-61
2023/04/11 13:27:38;;;;;;;7.03;4.80;;;;;;;16.97;37.44;99719.00;5030513;28;20226;-62
2023/04/11 13:30:07;;;;;;;4.53;4.13;;;;;;;16.94;37.92;99720.00;5029817;28;20704;-61
2023/04/11 13:32:35;;;;;;;6.13;4.80;;;;;;;16.92;37.82;99720.97;5031917;28;20289;-63
2023/04/11 13:35:04;;;;;;;5.45;4.95;;;;;;;16.94;37.85;99713.91;5029550;28;20241;-62
2023/04/11 13:37:32;;;;;;;5.37;4.87;;;;;;;17.03;37.75;99705.72;5017810;28;20209;-63
2023/04/11 13:40:00;;;;;;;6.00;5.50;;;;;;;17.03;37.41;99703.13;5029167;28;20253;-63
2023/04/11 13:42:28;;;;;;;4.90;4.47;;;;;;;17.07;37.61;99692.50;5029917;28;20725;-62
2023/04/11 13:44:57;;;;;;;5.72;4.65;;;;;;;17.08;37.52;99702.00;5028872;28;20214;-61
2023/04/11 13:47:25;;;;;;;5.70;5.10;;;;;;;16.98;37.77;99695.50;5032557;28;20300;-62
2023/04/11 13:49:53;;;;;;;5.13;4.72;;;;;;;16.95;38.05;99694.81;5032780;28;20202;-60
2023/04/11 13:52:22;;;;;;;5.40;4.90;;;;;;;16.93;37.64;99694.84;5026699;28;20233;-62
2023/04/11 13:54:50;;;;;;;5.25;4.80;;;;;;;16.92;37.25;99689.72;5025165;28;20198;-61
2023/04/11 13:57:18;;;;;;;6.37;5.20;;;;;;;16.95;37.48;99690.44;5032320;28;20221;-63
2023/04/11 13:59:46;;;;;;;5.95;4.90;;;;;;;17.06;37.71;99693.41;5026576;28;20221;-63
2023/04/11 14:02:15;;;;;;;5.10;4.60;;;;;;;17.03;36.84;99687.50;5024942;28;20264;-64
2023/04/11 14:04:43;;;;;;;5.67;5.17;;;;;;;16.83;37.12;99678.81;5025776;28;20972;-62
2023/04/11 14:07:11;;;;;;;5.85;5.25;;;;;;;16.63;38.21;99682.22;5027742;28;20207;-64
2023/04/11 14:09:39;;;;;;;5.93;4.78;;;;;;;16.62;37.89;99679.69;5027587;28;20227;-61
2023/04/11 14:12:07;;;;;;;6.65;5.18;;;;;;;16.80;38.49;99675.50;5028266;28;20669;-61
2023/04/11 14:14:35;;;;;;;5.93;5.30;;;;;;;17.04;37.83;99674.41;5025576;28;20269;-64
2023/04/11 14:17:02;;;;;;;5.68;5.05;;;;;;;17.13;37.73;99667.97;5026840;28;20220;-68
2023/04/11 14:19:32;;;;;;;5.55;5.05;;;;;;;17.13;37.22;99667.97;5029064;28;20264;-68
2023/04/11 14:22:00;;;;;;;5.05;4.65;;;;;;;17.15;36.74;99663.53;5029712;28;20239;-62
2023/04/11 14:24:28;;;;;;;6.13;4.55;;;;;;;17.13;36.96;99667.97;5029592;28;20214;-63
2023/04/11 14:26:56;;;;;;;5.32;4.82;;;;;;;17.08;37.14;99665.53;5028524;28;20217;-64
2023/04/11 14:29:25;;;;;;;5.20;4.78;;;;;;;17.10;36.86;99660.28;5027453;28;20206;-62
2023/04/11 14:31:53;;;;;;;5.73;4.70;;;;;;;17.12;36.55;99661.03;5027805;28;20673;-63
2023/04/11 14:34:21;;;;;;;9.38;5.10;;;;;;;17.14;36.37;99649.66;5024715;28;20211;-62
2023/04/11 14:36:50;;;;;;;4.85;4.35;;;;;;;17.16;36.58;99654.81;5027609;28;20595;-62
2023/04/11 14:39:18;;;;;;;7.82;4.55;;;;;;;17.10;36.78;99655.09;5027852;28;20217;-62
2023/04/11 14:41:47;;;;;;;5.40;4.90;;;;;;;17.01;37.12;99658.94;5029101;28;20759;-60
2023/04/11 14:44:15;;;;;;;5.22;4.70;;;;;;;16.83;37.38;99644.97;5031061;28;20214;-62
2023/04/11 14:46:43;;;;;;;5.38;4.68;;;;;;;16.78;38.03;99640.88;5028147;28;20260;-71
2023/04/11 14:49:11;;;;;;;5.70;4.65;;;;;;;16.75;38.08;99646.22;5020923;28;20210;-63
2023/04/11 14:51:39;;;;;;;5.60;4.35;;;;;;;16.72;38.32;99647.16;5028730;28;20308;-64
2023/04/11 14:54:08;;;;;;;6.45;4.50;;;;;;;16.71;37.91;99649.81;5029403;28;20198;-61
2023/04/11 14:56:36;;;;;;;5.90;4.80;;;;;;;16.61;37.24;99637.22;5030662;28;20237;-64
2023/04/11 14:59:04;;;;;;;4.93;4.47;;;;;;;16.57;37.59;99642.59;5030917;28;20660;-63
2023/04/11 15:01:32;;;;;;;4.80;4.27;;;;;;;16.54;37.38;99641.00;5029772;28;20203;-63
2023/04/11 15:04:00;;;;;;;4.93;4.50;;;;;;;16.50;37.49;99636.84;5026179;28;20241;-62
2023/04/11 15:06:28;;;;;;;4.97;4.47;;;;;;;16.44;37.37;99637.09;5029297;28;20657;-63
2023/04/11 15:08:56;;;;;;;4.43;4.03;;;;;;;16.39;37.48;99639.88;5021838;28;20257;-65
2023/04/11 15:11:26;;;;;;;4.73;4.33;;;;;;;16.32;37.58;99638.44;5022165;28;20219;-63
2023/04/11 15:13:54;;;;;;;4.93;4.43;;;;;;;16.25;37.74;99631.81;5026582;28;20210;-61
2023/04/11 15:16:22;;;;;;;4.10;3.70;;;;;;;16.15;37.94;99625.28;5024784;28;20213;-62
2023/04/11 15:18:50;;;;;;;4.70;4.20;;;;;;;16.05;38.02;99634.38;5031801;28;20753;-65
2023/04/11 15:21:18;;;;;;;4.50;4.10;;;;;;;15.95;38.38;99628.72;5031306;28;20326;-65
2023/04/11 15:23:46;;;;;;;4.37;3.77;;;;;;;15.88;38.44;99625.53;5027559;28;20198;-63
2023/04/11 15:26:15;;;;;;;4.85;4.20;;;;;;;15.84;38.58;99623.94;5026905;28;20219;-63
2023/04/11 15:28:44;;;;;;;4.97;4.33;;;;;;;15.77;38.14;99619.06;5022800;28;20296;-62
2023/04/11 15:31:13;;;;;;;4.20;3.80;;;;;;;15.68;38.82;99610.75;5031091;28;20229;-63
2023/04/11 15:33:42;;;;;;;4.87;4.10;;;;;;;15.63;38.92;99612.63;5025563;28;20591;-63
2023/04/11 15:36:10;;;;;;;4.57;4.13;;;;;;;15.57;38.65;99612.84;5031159;28;20198;-62
2023/04/11 15:38:38;;;;;;;4.70;4.20;;;;;;;15.55;38.74;99613.84;5031089;28;20207;-62
2023/04/11 15:41:06;;;;;;;7.57;4.60;;;;;;;15.52;38.70;99612.19;5030042;28;20284;-64
2023/04/11 15:43:34;;;;;;;4.63;4.20;;;;;;;15.54;39.19;99612.13;5027863;28;20630;-67
2023/04/11 15:46:05;;;;;;;6.03;4.13;;;;;;;15.55;39.21;99614.69;5027411;28;20226;-63
2023/04/11 15:48:33;;;;;;;4.63;4.10;;;;;;;15.56;39.45;99605.13;5029248;28;20297;-63
2023/04/11 15:51:08;;;;;;;5.23;4.20;;;;;;;15.54;39.21;99592.22;5030793;28;20209;-63
2023/04/11 15:53:36;;;;;;;5.63;4.80;;;;;;;15.55;39.20;99596.50;5030979;28;20289;-63
2023/04/11 15:56:04;;;;;;;4.70;4.30;;;;;;;15.53;39.88;99597.44;5031482;28;20195;-62
2023/04/11 15:58:32;;;;;;;4.47;3.97;;;;;;;15.44;39.79;99583.94;5023002;28;20214;-63
2023/04/11 16:01:01;;;;;;;4.80;4.40;;;;;;;15.45;39.72;99597.75;5031154;28;20257;-62
2023/04/11 16:03:31;;;;;;;5.33;4.50;;;;;;;15.42;40.29;99598.72;5029159;28;20202;-62
2023/04/11 16:06:00;;;;;;;4.30;3.90;;;;;;;15.42;40.00;99601.31;5024605;28;20289;-61
2023/04/11 16:08:28;;;;;;;4.50;4.10;;;;;;;15.38;40.00;99591.94;5022162;28;20198;-63
2023/04/11 16:10:55;;;;;;;4.47;4.03;;;;;;;15.42;40.42;99583.13;5025959;28;20198;-65
2023/04/11 16:13:23;;;;;;;5.40;4.33;;;;;;;15.46;40.04;99594.25;5027161;28;20199;-65
2023/04/11 16:15:51;;;;;;;4.30;3.90;;;;;;;15.44;40.69;99580.50;5028468;28;20233;-66
2023/04/11 16:18:19;;;;;;;4.63;4.23;;;;;;;15.43;40.92;99584.84;5028059;28;20756;-63
2023/04/11 16:20:48;;;;;;;4.70;4.30;;;;;;;15.40;41.18;99587.56;5028879;28;20206;-64
2023/04/11 16:23:16;;;;;;;5.07;4.40;;;;;;;15.35;40.88;99588.63;5027071;28;20646;-63
2023/04/11 16:25:44;;;;;;;6.10;4.73;;;;;;;15.31;41.77;99582.69;5025193;28;20214;-64
2023/04/11 16:28:14;;;;;;;5.43;4.53;;;;;;;15.27;42.02;99573.34;5022618;28;20218;-63
2023/04/11 16:30:42;;;;;;;5.43;4.90;;;;;;;15.22;41.55;99573.53;5029438;28;20569;-65
2023/04/11 16:33:09;;;;;;;5.27;4.77;;;;;;;15.20;42.08;99577.06;5019571;28;20202;-63
2023/04/11 16:35:37;;;;;;;9.67;4.87;;;;;;;15.13;42.45;99565.22;5025364;28;20217;-63
2023/04/11 16:38:07;;;;;;;5.50;5.00;;;;;;;15.15;42.82;99574.66;5018921;28;20202;-62
2023/04/11 16:40:35;;;;;;;6.37;4.60;;;;;;;15.11;42.80;99573.09;5022521;28;20234;-64
2023/04/11 16:43:02;;;;;;;5.73;4.90;;;;;;;15.03;42.77;99569.09;5023664;28;20202;-63
2023/04/11 16:45:32;;;;;;;6.13;5.00;;;;;;;15.00;43.66;99571.81;5024933;28;20214;-63
2023/04/11 16:48:00;;;;;;;5.83;5.20;;;;;;;14.98;43.62;99569.25;5023838;28;20229;-63
2023/04/11 16:50:28;;;;;;;5.67;4.83;;;;;;;14.92;43.92;99565.16;5028820;28;20699;-63
2023/04/11 16:52:56;;;;;;;5.10;4.60;;;;;;;14.89;43.58;99570.44;5032015;28;20199;-62
2023/04/11 16:55:26;;;;;;;6.97;5.70;;;;;;;14.82;44.08;99561.19;5030569;28;20234;-62
2023/04/11 16:57:54;;;;;;;8.27;5.67;;;;;;;14.77;44.13;99565.72;5032362;28;20234;-66
2023/04/11 17:00:23;;;;;;;5.83;4.93;;;;;;;14.75;44.87;99570.09;5034654;28;20214;-67
2023/04/11 17:02:51;;;;;;;5.70;5.10;;;;;;;14.72;45.02;99559.84;5026621;28;20646;-64
2023/04/11 17:05:19;;;;;;;7.63;5.83;;;;;;;14.67;44.84;99566.94;5027517;28;20203;-65
2023/04/11 17:07:47;;;;;;;5.83;5.20;;;;;;;14.65;44.97;99555.78;5026406;28;20223;-63
2023/04/11 17:10:15;;;;;;;7.67;5.50;;;;;;;14.61;45.21;99559.38;5023096;28;20234;-63
2023/04/11 17:12:44;;;;;;;6.37;4.77;;;;;;;14.58;45.82;99560.34;5026539;28;20198;-63
2023/04/11 17:15:12;;;;;;;6.63;5.80;;;;;;;14.53;45.88;99553.63;5027699;28;20211;-61
2023/04/11 17:17:40;;;;;;;5.53;5.03;;;;;;;14.54;45.76;99561.34;5028344;28;20206;-62
2023/04/11 17:20:10;;;;;;;8.27;5.47;;;;;;;14.53;45.82;99553.63;5032783;28;20198;-63
2023/04/11 17:22:41;;;;;;;6.60;5.57;;;;;;;14.50;46.24;99558.00;5031927;28;20250;-62
2023/04/11 17:25:10;;;;;;;5.77;5.17;;;;;;;14.48;46.45;99553.75;5029818;28;20210;-60
2023/04/11 17:27:38;;;;;;;7.63;5.37;;;;;;;14.44;46.73;99555.63;5022507;28;20250;-63
2023/04/11 17:30:09;;;;;;;5.80;4.63;;;;;;;14.37;46.29;99551.56;5029257;28;20330;-62
2023/04/11 17:32:36;;;;;;;7.97;5.83;;;;;;;14.38;46.73;99558.41;5030586;28;20199;-62
2023/04/11 17:35:05;;;;;;;6.10;5.50;;;;;;;14.34;46.71;99556.00;5028459;28;20207;-63
2023/04/11 17:37:34;;;;;;;7.53;5.70;;;;;;;14.30;47.07;99565.63;5028271;28;20273;-64
2023/04/11 17:40:11;;;;;;;6.37;5.67;;;;;;;14.25;47.54;99563.19;5027124;28;20642;-62
2023/04/11 17:42:40;;;;;;;6.43;5.60;;;;;;;14.20;47.70;99566.81;5023896;28;20206;-61
2023/04/11 17:45:11;;;;;;;6.17;5.57;;;;;;;14.14;48.12;99572.19;5019697;28;20206;-70
2023/04/11 17:47:42;;;;;;;7.03;5.97;;;;;;;14.09;48.09;99558.56;5022328;28;20283;-72
2023/04/11 17:50:12;;;;;;;7.50;6.20;;;;;;;14.06;48.14;99559.50;5026252;28;20211;-70
2023/04/11 17:52:41;;;;;;;7.77;5.50;;;;;;;14.04;48.80;99557.88;5023776;28;20199;-68
2023/04/11 17:58:33;;;;;;;6.63;6.03;;;;;;;13.97;48.42;99560.66;5023622;28;20210;-70
2023/04/11 18:01:03;;;;;;;8.30;5.73;;;;;;;13.95;48.48;99561.63;5021603;28;20214;-68
2023/04/11 18:03:33;;;;;;;8.70;6.40;;;;;;;13.92;48.79;99557.41;5024417;28;20208;-71
2023/04/11 18:06:02;;;;;;;8.13;6.27;;;;;;;13.91;48.83;99558.28;5026377;28;20208;-70
2023/04/11 18:08:30;;;;;;;9.97;6.07;;;;;;;13.86;48.71;99567.94;5027443;28;20673;-72
2023/04/11 18:11:18;;;;;;;10.13;6.17;;;;;;;13.80;49.26;99557.78;5027948;28;20213;-69
2023/04/11 18:13:46;;;;;;;7.30;6.50;;;;;;;13.79;49.25;99566.47;5032209;28;20206;-71
2023/04/11 18:16:18;;;;;;;8.50;6.87;;;;;;;13.75;49.40;99576.06;5031424;28;20198;-71
2023/04/11 18:18:47;;;;;;;7.20;6.33;;;;;;;13.73;49.51;99572.69;5029802;28;20711;-71
2023/04/11 18:21:16;;;;;;;8.17;6.53;;;;;;;13.69;49.55;99575.41;5033030;28;20214;-71
2023/04/11 18:23:44;;;;;;;8.37;6.93;;;;;;;13.67;49.97;99583.25;5032360;28;21009;-74
2023/04/11 18:26:12;;;;;;;9.37;7.50;;;;;;;13.63;49.77;99588.56;5031083;28;20225;-71
2023/04/11 18:28:40;;;;;;;10.27;7.37;;;;;;;13.61;50.16;99583.41;5032099;28;20214;-70
2023/04/11 18:31:09;;;;;;;9.20;6.87;;;;;;;13.62;50.07;99589.44;5029752;28;20245;-70
2023/04/11 18:33:38;;;;;;;9.70;7.33;;;;;;;13.59;50.28;99585.22;5028672;28;20550;-72
2023/04/11 18:36:25;;;;;;;9.70;7.20;;;;;;;13.55;50.18;99583.63;5027759;28;20401;-71
2023/04/11 18:38:54;;;;;;;8.63;7.50;;;;;;;13.52;50.77;99589.75;5028063;28;20206;-71
2023/04/11 18:41:24;;;;;;;9.60;7.53;;;;;;;13.47;50.68;99588.16;5021326;28;20269;-71
2023/04/11 18:43:52;;;;;;;8.83;7.37;;;;;;;13.41;50.90;99590.97;5020550;28;20210;-72
2023/04/11 18:46:20;;;;;;;9.60;7.50;;;;;;;13.37;51.24;99585.03;5026641;28;20217;-72
2023/04/11 18:48:49;;;;;;;9.17;7.70;;;;;;;13.33;51.30;99577.38;5021521;28;20229;-72
2023/04/11 18:51:17;;;;;;;9.87;7.97;;;;;;;13.28;51.67;99580.13;5028497;28;20272;-71
2023/04/11 18:53:45;;;;;;;10.97;8.33;;;;;;;13.24;51.83;99586.28;5032510;28;20337;-71
2023/04/11 18:56:13;;;;;;;11.13;8.77;;;;;;;13.20;51.94;99589.81;5026229;28;20229;-71
2023/04/11 18:58:42;;;;;;;10.57;8.00;;;;;;;13.16;52.26;99586.47;5030329;28;20221;-70
2023/04/11 19:01:13;;;;;;;12.13;8.53;;;;;;;13.06;52.32;99583.31;5020943;28;20271;-71
2023/04/11 19:03:44;;;;;;;12.33;8.97;;;;;;;12.99;52.63;99579.19;5039611;28;20214;-73
2023/04/11 19:06:15;;;;;;;12.27;8.80;;;;;;;12.95;52.80;99582.78;5025138;28;20218;-73
2023/04/11 19:08:44;;;;;;;14.07;8.73;;;;;;;12.97;52.90;99585.34;5030645;28;20238;-70
2023/04/11 19:11:12;;;;;;;14.20;8.57;;;;;;;12.97;52.86;99585.34;5028424;28;20317;-72
2023/04/11 19:13:40;;;;;;;14.10;8.40;;;;;;;12.94;52.66;99588.84;5027838;28;20203;-70
2023/04/11 19:16:08;;;;;;;11.07;7.90;;;;;;;12.91;52.92;99591.50;5024302;28;20206;-70
2023/04/11 19:18:36;;;;;;;11.93;8.00;;;;;;;12.89;53.02;99588.13;5030975;28;20217;-70
2023/04/11 19:21:04;;;;;;;13.07;8.60;;;;;;;12.85;52.91;99586.53;5028249;28;20206;-70
2023/04/11 19:23:34;;;;;;;11.10;8.53;;;;;;;12.81;52.97;99585.78;5023970;28;20222;-71
2023/04/11 19:26:02;;;;;;;11.70;8.50;;;;;;;12.78;52.79;99575.50;5025835;28;20250;-70
2023/04/11 19:28:30;;;;;;;11.43;9.17;;;;;;;12.75;52.90;99583.34;5018840;28;20218;-71
2023/04/11 19:30:58;;;;;;;10.43;8.27;;;;;;;12.73;52.88;99581.69;5025480;28;20211;-73
2023/04/11 19:33:27;;;;;;;12.10;8.77;;;;;;;12.72;52.98;99587.75;5021581;28;20211;-70
2023/04/11 19:35:55;;;;;;;11.73;9.13;;;;;;;12.62;53.24;99570.78;5026043;28;20660;-70
2023/04/11 19:38:23;;;;;;;13.63;9.30;;;;;;;12.66;53.27;99586.16;5020408;28;20285;-72
2023/04/11 19:40:52;;;;;;;10.67;8.83;;;;;;;12.63;53.43;99585.41;5025262;28;20198;-72
2023/04/11 19:43:20;;;;;;;12.20;9.53;;;;;;;12.60;53.47;99581.19;5027147;28;20203;-71
2023/04/11 19:45:48;;;;;;;15.70;10.20;;;;;;;12.57;53.51;99582.13;5025269;28;20284;-71
2023/04/11 19:48:16;;;;;;;16.07;10.20;;;;;;;12.56;53.67;99580.44;5026600;28;20222;-74
2023/04/11 19:50:44;;;;;;;13.27;10.07;;;;;;;12.55;53.63;99577.88;5021886;28;21772;-72
2023/04/11 19:53:13;;;;;;;12.97;10.40;;;;;;;12.52;53.92;99573.66;5023765;28;20214;-71
2023/04/11 19:55:44;;;;;;;13.77;10.23;;;;;;;12.43;54.02;99573.88;5027325;28;20661;-72
2023/04/11 19:58:14;;;;;;;13.60;10.27;;;;;;;12.48;54.05;99592.72;5020341;28;20607;-71
2023/04/11 20:00:42;;;;;;;12.20;9.73;;;;;;;12.43;54.24;99591.97;5018477;28;20207;-73
2023/04/11 20:03:13;;;;;;;14.30;11.00;;;;;;;12.40;54.46;99584.28;5022696;28;20199;-73
2023/04/11 20:05:42;;;;;;;16.97;10.60;;;;;;;12.39;54.63;99595.53;5036724;28;20205;-72